sensor_id;sensor_type;location;lat;lon;timestamp;temperature;humidity
68609;SHT31;55581;46.718;7.690;2024-02-16T00:01:31;7.47;80.56
68609;SHT31;55581;46.718;7.690;2024-02-16T00:03:56;7.49;80.96
68609;SHT31;55581;46.718;7.690;2024-02-16T00:06:21;7.44;81.74
68609;SHT31;55581;46.718;7.690;2024-02-16T00:08:47;7.44;82.36
68609;SHT31;55581;46.718;7.690;2024-02-16T00:11:13;7.42;82.24
68609;SHT31;55581;46.718;7.690;2024-02-16T00:13:38;7.37;82.60
68609;SHT31;55581;46.718;7.690;2024-02-16T00:16:06;7.30;83.24
68609;SHT31;55581;46.718;7.690;2024-02-16T00:18:34;7.33;82.90
68609;SHT31;55581;46.718;7.690;2024-02-16T00:21:00;7.32;82.67
68609;SHT31;55581;46.718;7.690;2024-02-16T00:23:26;7.26;84.04
68609;SHT31;55581;46.718;7.690;2024-02-16T00:25:52;7.20;83.66
68609;SHT31;55581;46.718;7.690;2024-02-16T00:28:18;7.20;84.30
68609;SHT31;55581;46.718;7.690;2024-02-16T00:30:46;7.19;84.40
68609;SHT31;55581;46.718;7.690;2024-02-16T00:33:12;7.15;84.18
68609;SHT31;55581;46.718;7.690;2024-02-16T00:35:37;7.22;83.56
68609;SHT31;55581;46.718;7.690;2024-02-16T00:38:05;7.16;83.61
68609;SHT31;55581;46.718;7.690;2024-02-16T00:40:31;7.12;83.87
68609;SHT31;55581;46.718;7.690;2024-02-16T00:42:56;7.13;84.02
68609;SHT31;55581;46.718;7.690;2024-02-16T00:45:22;7.12;83.94
68609;SHT31;55581;46.718;7.690;2024-02-16T00:47:47;7.09;84.61
68609;SHT31;55581;46.718;7.690;2024-02-16T00:50:16;7.09;83.26
68609;SHT31;55581;46.718;7.690;2024-02-16T00:52:41;7.12;82.78
68609;SHT31;55581;46.718;7.690;2024-02-16T00:55:10;7.15;83.21
68609;SHT31;55581;46.718;7.690;2024-02-16T00:57:36;7.20;83.99
68609;SHT31;55581;46.718;7.690;2024-02-16T01:00:01;7.23;83.57
68609;SHT31;55581;46.718;7.690;2024-02-16T01:02:28;7.26;82.63
68609;SHT31;55581;46.718;7.690;2024-02-16T01:04:54;7.29;82.01
68609;SHT31;55581;46.718;7.690;2024-02-16T01:07:23;7.23;82.86
68609;SHT31;55581;46.718;7.690;2024-02-16T01:09:48;7.27;82.13
68609;SHT31;55581;46.718;7.690;2024-02-16T01:12:14;7.29;83.07
68609;SHT31;55581;46.718;7.690;2024-02-16T01:14:39;7.27;82.64
68609;SHT31;55581;46.718;7.690;2024-02-16T01:17:07;7.29;82.79
68609;SHT31;55581;46.718;7.690;2024-02-16T01:19:32;7.29;83.05
68609;SHT31;55581;46.718;7.690;2024-02-16T01:21:58;7.27;82.44
68609;SHT31;55581;46.718;7.690;2024-02-16T01:24:25;7.42;82.56
68609;SHT31;55581;46.718;7.690;2024-02-16T01:26:53;7.46;81.16
68609;SHT31;55581;46.718;7.690;2024-02-16T01:29:19;7.54;80.56
68609;SHT31;55581;46.718;7.690;2024-02-16T01:31:45;7.54;80.22
68609;SHT31;55581;46.718;7.690;2024-02-16T01:34:10;7.66;79.28
68609;SHT31;55581;46.718;7.690;2024-02-16T01:36:36;7.78;79.95
68609;SHT31;55581;46.718;7.690;2024-02-16T01:39:06;7.73;80.58
68609;SHT31;55581;46.718;7.690;2024-02-16T01:41:32;7.68;80.82
68609;SHT31;55581;46.718;7.690;2024-02-16T01:43:58;7.70;79.53
68609;SHT31;55581;46.718;7.690;2024-02-16T01:46:24;7.64;80.08
68609;SHT31;55581;46.718;7.690;2024-02-16T01:48:49;7.71;79.22
68609;SHT31;55581;46.718;7.690;2024-02-16T01:51:19;7.67;79.59
68609;SHT31;55581;46.718;7.690;2024-02-16T01:53:44;7.56;81.51
68609;SHT31;55581;46.718;7.690;2024-02-16T01:56:11;7.49;82.41
68609;SHT31;55581;46.718;7.690;2024-02-16T01:58:36;7.40;82.77
68609;SHT31;55581;46.718;7.690;2024-02-16T02:01:04;7.33;82.41
68609;SHT31;55581;46.718;7.690;2024-02-16T02:03:32;7.22;82.73
68609;SHT31;55581;46.718;7.690;2024-02-16T02:05:58;7.09;82.78
68609;SHT31;55581;46.718;7.690;2024-02-16T02:08:25;6.99;83.41
68609;SHT31;55581;46.718;7.690;2024-02-16T02:10:51;6.94;83.56
68609;SHT31;55581;46.718;7.690;2024-02-16T02:13:16;6.78;83.47
68609;SHT31;55581;46.718;7.690;2024-02-16T02:15:42;6.88;82.81
68609;SHT31;55581;46.718;7.690;2024-02-16T02:18:07;6.91;82.75
68609;SHT31;55581;46.718;7.690;2024-02-16T02:20:33;6.94;83.07
68609;SHT31;55581;46.718;7.690;2024-02-16T02:22:59;6.95;84.10
68609;SHT31;55581;46.718;7.690;2024-02-16T02:25:24;6.96;83.87
68609;SHT31;55581;46.718;7.690;2024-02-16T02:27:52;7.01;83.30
68609;SHT31;55581;46.718;7.690;2024-02-16T02:30:17;7.04;83.48
68609;SHT31;55581;46.718;7.690;2024-02-16T02:32:42;7.04;83.92
68609;SHT31;55581;46.718;7.690;2024-02-16T02:35:08;7.02;84.39
68609;SHT31;55581;46.718;7.690;2024-02-16T02:37:34;7.06;84.27
68609;SHT31;55581;46.718;7.690;2024-02-16T02:39:59;7.04;84.62
68609;SHT31;55581;46.718;7.690;2024-02-16T02:42:25;6.99;84.65
68609;SHT31;55581;46.718;7.690;2024-02-16T02:44:50;6.98;84.56
68609;SHT31;55581;46.718;7.690;2024-02-16T02:47:16;6.95;85.33
68609;SHT31;55581;46.718;7.690;2024-02-16T02:49:43;6.95;84.86
68609;SHT31;55581;46.718;7.690;2024-02-16T02:52:08;6.92;84.40
68609;SHT31;55581;46.718;7.690;2024-02-16T02:54:34;6.92;84.30
68609;SHT31;55581;46.718;7.690;2024-02-16T02:56:59;6.96;82.96
68609;SHT31;55581;46.718;7.690;2024-02-16T02:59:27;7.02;82.84
68609;SHT31;55581;46.718;7.690;2024-02-16T03:01:52;7.11;82.24
68609;SHT31;55581;46.718;7.690;2024-02-16T03:04:18;7.24;81.48
68609;SHT31;55581;46.718;7.690;2024-02-16T03:06:43;7.36;80.48
68609;SHT31;55581;46.718;7.690;2024-02-16T03:09:11;7.43;81.36
68609;SHT31;55581;46.718;7.690;2024-02-16T03:11:36;7.42;83.33
68609;SHT31;55581;46.718;7.690;2024-02-16T03:14:04;7.29;84.09
68609;SHT31;55581;46.718;7.690;2024-02-16T03:16:30;7.20;84.26
68609;SHT31;55581;46.718;7.690;2024-02-16T03:18:56;7.09;83.67
68609;SHT31;55581;46.718;7.690;2024-02-16T03:21:27;7.18;82.04
68609;SHT31;55581;46.718;7.690;2024-02-16T03:23:52;7.09;82.50
68609;SHT31;55581;46.718;7.690;2024-02-16T03:26:19;6.94;82.73
68609;SHT31;55581;46.718;7.690;2024-02-16T03:28:46;6.81;83.43
68609;SHT31;55581;46.718;7.690;2024-02-16T03:31:18;6.74;83.81
68609;SHT31;55581;46.718;7.690;2024-02-16T03:33:44;6.67;84.43
68609;SHT31;55581;46.718;7.690;2024-02-16T03:36:09;6.60;84.66
68609;SHT31;55581;46.718;7.690;2024-02-16T03:38:35;6.50;84.89
68609;SHT31;55581;46.718;7.690;2024-02-16T03:41:00;6.46;85.15
68609;SHT31;55581;46.718;7.690;2024-02-16T03:43:25;6.39;85.21
68609;SHT31;55581;46.718;7.690;2024-02-16T03:45:53;6.37;85.79
68609;SHT31;55581;46.718;7.690;2024-02-16T03:48:18;6.34;85.44
68609;SHT31;55581;46.718;7.690;2024-02-16T03:50:44;6.33;85.62
68609;SHT31;55581;46.718;7.690;2024-02-16T03:53:11;6.25;84.81
68609;SHT31;55581;46.718;7.690;2024-02-16T03:55:36;6.19;85.94
68609;SHT31;55581;46.718;7.690;2024-02-16T03:58:03;6.23;85.98
68609;SHT31;55581;46.718;7.690;2024-02-16T04:00:29;6.18;85.64
68609;SHT31;55581;46.718;7.690;2024-02-16T04:02:54;6.08;86.89
68609;SHT31;55581;46.718;7.690;2024-02-16T04:05:20;6.09;88.77
68609;SHT31;55581;46.718;7.690;2024-02-16T04:07:49;6.12;87.43
68609;SHT31;55581;46.718;7.690;2024-02-16T04:10:17;6.03;87.17
68609;SHT31;55581;46.718;7.690;2024-02-16T04:12:43;5.99;87.68
68609;SHT31;55581;46.718;7.690;2024-02-16T04:15:08;5.98;88.74
68609;SHT31;55581;46.718;7.690;2024-02-16T04:17:36;5.97;88.84
68609;SHT31;55581;46.718;7.690;2024-02-16T04:20:02;5.99;89.32
68609;SHT31;55581;46.718;7.690;2024-02-16T04:22:28;5.94;89.14
68609;SHT31;55581;46.718;7.690;2024-02-16T04:24:53;5.92;88.86
68609;SHT31;55581;46.718;7.690;2024-02-16T04:27:18;5.91;88.95
68609;SHT31;55581;46.718;7.690;2024-02-16T04:29:44;5.85;89.33
68609;SHT31;55581;46.718;7.690;2024-02-16T04:32:11;5.88;88.06
68609;SHT31;55581;46.718;7.690;2024-02-16T04:34:37;5.79;87.20
68609;SHT31;55581;46.718;7.690;2024-02-16T04:37:02;5.75;87.31
68609;SHT31;55581;46.718;7.690;2024-02-16T04:39:28;5.75;87.30
68609;SHT31;55581;46.718;7.690;2024-02-16T04:41:54;5.78;86.72
68609;SHT31;55581;46.718;7.690;2024-02-16T04:44:22;5.87;85.65
68609;SHT31;55581;46.718;7.690;2024-02-16T04:46:50;5.82;85.73
68609;SHT31;55581;46.718;7.690;2024-02-16T04:49:17;5.84;85.82
68609;SHT31;55581;46.718;7.690;2024-02-16T04:51:43;5.92;85.01
68609;SHT31;55581;46.718;7.690;2024-02-16T04:54:08;6.01;84.62
68609;SHT31;55581;46.718;7.690;2024-02-16T04:56:34;5.98;84.87
68609;SHT31;55581;46.718;7.690;2024-02-16T04:58:59;6.03;84.79
68609;SHT31;55581;46.718;7.690;2024-02-16T05:01:24;6.06;84.46
68609;SHT31;55581;46.718;7.690;2024-02-16T05:03:52;6.06;84.41
68609;SHT31;55581;46.718;7.690;2024-02-16T05:06:17;6.09;84.08
68609;SHT31;55581;46.718;7.690;2024-02-16T05:08:43;6.09;84.05
68609;SHT31;55581;46.718;7.690;2024-02-16T05:11:08;6.12;83.97
68609;SHT31;55581;46.718;7.690;2024-02-16T05:13:38;6.19;83.73
68609;SHT31;55581;46.718;7.690;2024-02-16T05:16:11;6.23;83.91
68609;SHT31;55581;46.718;7.690;2024-02-16T05:18:37;6.20;84.02
68609;SHT31;55581;46.718;7.690;2024-02-16T05:21:02;6.19;84.29
68609;SHT31;55581;46.718;7.690;2024-02-16T05:23:28;6.18;84.52
68609;SHT31;55581;46.718;7.690;2024-02-16T05:25:53;6.20;84.00
68609;SHT31;55581;46.718;7.690;2024-02-16T05:28:21;6.15;84.39
68609;SHT31;55581;46.718;7.690;2024-02-16T05:30:49;6.11;84.17
68609;SHT31;55581;46.718;7.690;2024-02-16T05:33:14;6.05;84.21
68609;SHT31;55581;46.718;7.690;2024-02-16T05:35:40;6.03;83.56
68609;SHT31;55581;46.718;7.690;2024-02-16T05:38:06;6.11;82.47
68609;SHT31;55581;46.718;7.690;2024-02-16T05:40:47;6.06;83.42
68609;SHT31;55581;46.718;7.690;2024-02-16T05:43:22;6.06;83.48
68609;SHT31;55581;46.718;7.690;2024-02-16T05:45:49;5.97;83.37
68609;SHT31;55581;46.718;7.690;2024-02-16T05:48:14;5.91;82.95
68609;SHT31;55581;46.718;7.690;2024-02-16T05:50:40;5.84;83.36
68609;SHT31;55581;46.718;7.690;2024-02-16T05:53:06;5.79;84.06
68609;SHT31;55581;46.718;7.690;2024-02-16T05:55:31;5.70;84.16
68609;SHT31;55581;46.718;7.690;2024-02-16T05:57:57;5.70;84.71
68609;SHT31;55581;46.718;7.690;2024-02-16T06:00:22;5.70;84.65
68609;SHT31;55581;46.718;7.690;2024-02-16T06:02:48;5.67;85.26
68609;SHT31;55581;46.718;7.690;2024-02-16T06:05:13;5.67;84.51
68609;SHT31;55581;46.718;7.690;2024-02-16T06:07:39;5.61;84.96
68609;SHT31;55581;46.718;7.690;2024-02-16T06:10:06;5.57;84.37
68609;SHT31;55581;46.718;7.690;2024-02-16T06:12:39;5.54;85.05
68609;SHT31;55581;46.718;7.690;2024-02-16T06:15:07;5.56;85.71
68609;SHT31;55581;46.718;7.690;2024-02-16T06:17:33;5.64;84.70
68609;SHT31;55581;46.718;7.690;2024-02-16T06:19:58;5.65;84.49
68609;SHT31;55581;46.718;7.690;2024-02-16T06:22:23;5.63;84.81
68609;SHT31;55581;46.718;7.690;2024-02-16T06:24:49;5.67;84.36
68609;SHT31;55581;46.718;7.690;2024-02-16T06:27:14;5.65;85.87
68609;SHT31;55581;46.718;7.690;2024-02-16T06:29:41;5.60;86.86
68609;SHT31;55581;46.718;7.690;2024-02-16T06:32:06;5.60;86.75
68609;SHT31;55581;46.718;7.690;2024-02-16T06:34:32;5.60;89.07
68609;SHT31;55581;46.718;7.690;2024-02-16T06:36:58;5.54;88.70
68609;SHT31;55581;46.718;7.690;2024-02-16T06:39:23;5.50;88.40
68609;SHT31;55581;46.718;7.690;2024-02-16T06:41:51;5.51;87.40
68609;SHT31;55581;46.718;7.690;2024-02-16T06:44:19;5.51;87.77
68609;SHT31;55581;46.718;7.690;2024-02-16T06:46:46;5.48;86.43
68609;SHT31;55581;46.718;7.690;2024-02-16T06:49:14;5.50;86.26
68609;SHT31;55581;46.718;7.690;2024-02-16T06:51:39;5.56;86.78
68609;SHT31;55581;46.718;7.690;2024-02-16T06:54:05;5.64;86.75
68609;SHT31;55581;46.718;7.690;2024-02-16T06:56:31;5.65;86.41
68609;SHT31;55581;46.718;7.690;2024-02-16T06:58:56;5.71;86.55
68609;SHT31;55581;46.718;7.690;2024-02-16T07:01:22;5.75;86.12
68609;SHT31;55581;46.718;7.690;2024-02-16T07:03:47;5.81;86.01
68609;SHT31;55581;46.718;7.690;2024-02-16T07:06:13;5.84;86.48
68609;SHT31;55581;46.718;7.690;2024-02-16T07:08:43;5.91;86.72
68609;SHT31;55581;46.718;7.690;2024-02-16T07:11:09;5.95;86.76
68609;SHT31;55581;46.718;7.690;2024-02-16T07:13:40;6.02;86.63
68609;SHT31;55581;46.718;7.690;2024-02-16T07:16:08;6.05;86.81
68609;SHT31;55581;46.718;7.690;2024-02-16T07:18:36;6.11;86.75
68609;SHT31;55581;46.718;7.690;2024-02-16T07:21:02;6.19;86.66
68609;SHT31;55581;46.718;7.690;2024-02-16T07:23:27;6.18;86.84
68609;SHT31;55581;46.718;7.690;2024-02-16T07:25:56;6.18;87.34
68609;SHT31;55581;46.718;7.690;2024-02-16T07:28:23;6.26;87.98
68609;SHT31;55581;46.718;7.690;2024-02-16T07:30:50;6.30;87.47
68609;SHT31;55581;46.718;7.690;2024-02-16T07:33:18;6.34;87.64
68609;SHT31;55581;46.718;7.690;2024-02-16T07:35:44;6.44;88.37
68609;SHT31;55581;46.718;7.690;2024-02-16T07:38:12;6.49;87.98
68609;SHT31;55581;46.718;7.690;2024-02-16T07:40:37;6.49;88.16
68609;SHT31;55581;46.718;7.690;2024-02-16T07:43:05;6.56;87.46
68609;SHT31;55581;46.718;7.690;2024-02-16T07:45:31;6.63;87.64
68609;SHT31;55581;46.718;7.690;2024-02-16T07:47:56;6.60;88.25
68609;SHT31;55581;46.718;7.690;2024-02-16T07:50:22;6.67;87.86
68609;SHT31;55581;46.718;7.690;2024-02-16T07:52:49;6.73;88.27
68609;SHT31;55581;46.718;7.690;2024-02-16T07:55:15;6.75;87.97
68609;SHT31;55581;46.718;7.690;2024-02-16T07:57:45;6.78;87.74
68609;SHT31;55581;46.718;7.690;2024-02-16T08:00:10;6.85;87.63
68609;SHT31;55581;46.718;7.690;2024-02-16T08:02:36;6.91;87.24
68609;SHT31;55581;46.718;7.690;2024-02-16T08:05:02;7.01;87.20
68609;SHT31;55581;46.718;7.690;2024-02-16T08:07:28;7.11;86.94
68609;SHT31;55581;46.718;7.690;2024-02-16T08:09:53;7.26;86.84
68609;SHT31;55581;46.718;7.690;2024-02-16T08:12:19;7.42;85.92
68609;SHT31;55581;46.718;7.690;2024-02-16T08:14:44;7.60;85.31
68609;SHT31;55581;46.718;7.690;2024-02-16T08:17:11;7.81;84.06
68609;SHT31;55581;46.718;7.690;2024-02-16T08:19:39;8.06;83.01
68609;SHT31;55581;46.718;7.690;2024-02-16T08:22:08;8.33;82.49
68609;SHT31;55581;46.718;7.690;2024-02-16T08:24:34;8.28;82.81
68609;SHT31;55581;46.718;7.690;2024-02-16T08:27:03;8.19;82.30
68609;SHT31;55581;46.718;7.690;2024-02-16T08:29:29;8.25;82.48
68609;SHT31;55581;46.718;7.690;2024-02-16T08:31:55;8.22;83.48
68609;SHT31;55581;46.718;7.690;2024-02-16T08:34:23;8.19;83.79
68609;SHT31;55581;46.718;7.690;2024-02-16T08:36:51;8.17;83.86
68609;SHT31;55581;46.718;7.690;2024-02-16T08:39:17;8.29;84.00
68609;SHT31;55581;46.718;7.690;2024-02-16T08:41:43;8.33;83.37
68609;SHT31;55581;46.718;7.690;2024-02-16T08:44:14;8.39;83.02
68609;SHT31;55581;46.718;7.690;2024-02-16T08:46:44;8.53;83.47
68609;SHT31;55581;46.718;7.690;2024-02-16T08:49:09;8.71;82.92
68609;SHT31;55581;46.718;7.690;2024-02-16T08:51:37;8.88;81.82
68609;SHT31;55581;46.718;7.690;2024-02-16T08:54:02;8.97;81.44
68609;SHT31;55581;46.718;7.690;2024-02-16T08:56:30;9.11;80.73
68609;SHT31;55581;46.718;7.690;2024-02-16T08:58:55;9.22;80.89
68609;SHT31;55581;46.718;7.690;2024-02-16T09:01:31;9.40;80.03
68609;SHT31;55581;46.718;7.690;2024-02-16T09:03:59;9.63;79.97
68609;SHT31;55581;46.718;7.690;2024-02-16T09:06:28;9.67;80.36
68609;SHT31;55581;46.718;7.690;2024-02-16T09:08:55;9.65;80.71
68609;SHT31;55581;46.718;7.690;2024-02-16T09:11:21;9.75;78.72
68609;SHT31;55581;46.718;7.690;2024-02-16T09:13:47;9.85;79.31
68609;SHT31;55581;46.718;7.690;2024-02-16T09:16:12;10.01;78.42
68609;SHT31;55581;46.718;7.690;2024-02-16T09:18:38;9.97;78.85
68609;SHT31;55581;46.718;7.690;2024-02-16T09:21:04;9.95;78.47
68609;SHT31;55581;46.718;7.690;2024-02-16T09:23:30;9.94;77.26
68609;SHT31;55581;46.718;7.690;2024-02-16T09:25:56;10.03;74.32
68609;SHT31;55581;46.718;7.690;2024-02-16T09:28:21;10.20;71.45
68609;SHT31;55581;46.718;7.690;2024-02-16T09:30:49;10.16;72.52
68609;SHT31;55581;46.718;7.690;2024-02-16T09:33:14;10.32;72.28
68609;SHT31;55581;46.718;7.690;2024-02-16T09:35:42;10.42;71.74
68609;SHT31;55581;46.718;7.690;2024-02-16T09:38:08;10.53;72.30
68609;SHT31;55581;46.718;7.690;2024-02-16T09:40:36;10.50;71.03
68609;SHT31;55581;46.718;7.690;2024-02-16T09:43:01;10.47;71.35
68609;SHT31;55581;46.718;7.690;2024-02-16T09:45:28;10.33;71.65
68609;SHT31;55581;46.718;7.690;2024-02-16T09:47:54;10.29;71.36
68609;SHT31;55581;46.718;7.690;2024-02-16T09:50:20;10.33;71.81
68609;SHT31;55581;46.718;7.690;2024-02-16T09:52:47;10.36;72.77
68609;SHT31;55581;46.718;7.690;2024-02-16T09:55:18;10.46;72.36
68609;SHT31;55581;46.718;7.690;2024-02-16T09:57:44;10.50;73.67
68609;SHT31;55581;46.718;7.690;2024-02-16T10:00:10;10.55;73.99
68609;SHT31;55581;46.718;7.690;2024-02-16T10:02:42;10.56;73.61
68609;SHT31;55581;46.718;7.690;2024-02-16T10:05:19;10.57;74.11
68609;SHT31;55581;46.718;7.690;2024-02-16T10:07:47;10.56;75.29
68609;SHT31;55581;46.718;7.690;2024-02-16T10:10:31;10.64;74.98
68609;SHT31;55581;46.718;7.690;2024-02-16T10:13:04;10.75;74.26
68609;SHT31;55581;46.718;7.690;2024-02-16T10:15:31;10.88;74.55
68609;SHT31;55581;46.718;7.690;2024-02-16T10:18:00;11.05;72.82
68609;SHT31;55581;46.718;7.690;2024-02-16T10:20:26;11.08;72.57
68609;SHT31;55581;46.718;7.690;2024-02-16T10:23:06;11.04;73.26
68609;SHT31;55581;46.718;7.690;2024-02-16T10:25:35;11.18;72.77
68609;SHT31;55581;46.718;7.690;2024-02-16T10:28:05;11.21;72.66
68609;SHT31;55581;46.718;7.690;2024-02-16T10:30:36;11.23;73.09
68609;SHT31;55581;46.718;7.690;2024-02-16T10:33:05;11.25;72.35
68609;SHT31;55581;46.718;7.690;2024-02-16T10:35:36;11.32;71.21
68609;SHT31;55581;46.718;7.690;2024-02-16T10:38:04;11.46;68.97
68609;SHT31;55581;46.718;7.690;2024-02-16T10:40:39;11.55;65.52
68609;SHT31;55581;46.718;7.690;2024-02-16T10:43:05;11.53;66.13
68609;SHT31;55581;46.718;7.690;2024-02-16T10:45:33;11.63;65.89
68609;SHT31;55581;46.718;7.690;2024-02-16T10:48:00;11.55;67.83
68609;SHT31;55581;46.718;7.690;2024-02-16T10:50:25;11.74;65.48
68609;SHT31;55581;46.718;7.690;2024-02-16T10:52:55;11.83;64.84
68609;SHT31;55581;46.718;7.690;2024-02-16T10:55:22;11.73;65.42
68609;SHT31;55581;46.718;7.690;2024-02-16T10:57:49;11.81;65.37
68609;SHT31;55581;46.718;7.690;2024-02-16T11:00:15;11.77;66.31
68609;SHT31;55581;46.718;7.690;2024-02-16T11:02:58;11.84;64.79
68609;SHT31;55581;46.718;7.690;2024-02-16T11:05:41;11.95;66.33
68609;SHT31;55581;46.718;7.690;2024-02-16T11:08:17;11.97;65.17
68609;SHT31;55581;46.718;7.690;2024-02-16T11:13:28;12.04;65.02
68609;SHT31;55581;46.718;7.690;2024-02-16T11:16:07;12.22;64.07
68609;SHT31;55581;46.718;7.690;2024-02-16T11:18:38;12.33;63.17
68609;SHT31;55581;46.718;7.690;2024-02-16T11:21:04;12.32;63.35
68609;SHT31;55581;46.718;7.690;2024-02-16T11:23:31;12.40;63.87
68609;SHT31;55581;46.718;7.690;2024-02-16T11:26:06;12.61;64.71
68609;SHT31;55581;46.718;7.690;2024-02-16T11:28:39;12.76;60.44
68609;SHT31;55581;46.718;7.690;2024-02-16T11:31:05;12.95;58.81
68609;SHT31;55581;46.718;7.690;2024-02-16T11:33:33;12.83;59.75
68609;SHT31;55581;46.718;7.690;2024-02-16T11:36:03;12.88;60.40
68609;SHT31;55581;46.718;7.690;2024-02-16T11:38:32;12.88;60.19
68609;SHT31;55581;46.718;7.690;2024-02-16T11:40:59;12.94;61.09
68609;SHT31;55581;46.718;7.690;2024-02-16T11:43:25;13.03;60.92
68609;SHT31;55581;46.718;7.690;2024-02-16T11:45:51;13.12;59.38
68609;SHT31;55581;46.718;7.690;2024-02-16T11:48:24;13.15;59.43
68609;SHT31;55581;46.718;7.690;2024-02-16T11:51:02;13.16;60.56
68609;SHT31;55581;46.718;7.690;2024-02-16T11:53:31;13.35;61.24
68609;SHT31;55581;46.718;7.690;2024-02-16T11:55:57;13.38;60.71
68609;SHT31;55581;46.718;7.690;2024-02-16T11:58:23;13.39;59.75
68609;SHT31;55581;46.718;7.690;2024-02-16T12:00:50;13.34;59.37
68609;SHT31;55581;46.718;7.690;2024-02-16T12:03:27;13.36;61.23
68609;SHT31;55581;46.718;7.690;2024-02-16T12:05:54;13.46;59.28
68609;SHT31;55581;46.718;7.690;2024-02-16T12:08:22;13.18;60.40
68609;SHT31;55581;46.718;7.690;2024-02-16T12:10:49;13.26;63.14
68609;SHT31;55581;46.718;7.690;2024-02-16T12:13:19;13.38;59.44
68609;SHT31;55581;46.718;7.690;2024-02-16T12:15:49;13.19;61.34
68609;SHT31;55581;46.718;7.690;2024-02-16T12:18:24;13.19;61.00
68609;SHT31;55581;46.718;7.690;2024-02-16T12:23:25;13.32;60.77
68609;SHT31;55581;46.718;7.690;2024-02-16T12:25:50;13.46;59.55
68609;SHT31;55581;46.718;7.690;2024-02-16T12:28:18;13.46;58.39
68609;SHT31;55581;46.718;7.690;2024-02-16T12:30:48;13.60;58.12
68609;SHT31;55581;46.718;7.690;2024-02-16T12:33:14;13.25;60.19
68609;SHT31;55581;46.718;7.690;2024-02-16T12:35:40;12.94;62.05
68609;SHT31;55581;46.718;7.690;2024-02-16T12:38:05;12.86;62.02
68609;SHT31;55581;46.718;7.690;2024-02-16T12:40:31;12.81;61.61
68609;SHT31;55581;46.718;7.690;2024-02-16T12:42:56;12.77;62.41
68609;SHT31;55581;46.718;7.690;2024-02-16T12:45:22;12.87;61.65
68609;SHT31;55581;46.718;7.690;2024-02-16T12:47:47;13.04;62.19
68609;SHT31;55581;46.718;7.690;2024-02-16T12:50:12;13.36;62.06
68609;SHT31;55581;46.718;7.690;2024-02-16T12:52:40;13.71;58.24
68609;SHT31;55581;46.718;7.690;2024-02-16T12:55:09;13.79;59.29
68609;SHT31;55581;46.718;7.690;2024-02-16T12:57:40;13.97;57.10
68609;SHT31;55581;46.718;7.690;2024-02-16T13:00:06;14.06;56.78
68609;SHT31;55581;46.718;7.690;2024-02-16T13:02:32;14.15;56.23
68609;SHT31;55581;46.718;7.690;2024-02-16T13:04:57;14.10;57.45
68609;SHT31;55581;46.718;7.690;2024-02-16T13:07:24;14.24;58.01
68609;SHT31;55581;46.718;7.690;2024-02-16T13:09:49;14.42;58.48
68609;SHT31;55581;46.718;7.690;2024-02-16T13:12:16;14.65;58.52
68609;SHT31;55581;46.718;7.690;2024-02-16T13:14:45;14.68;56.92
68609;SHT31;55581;46.718;7.690;2024-02-16T13:17:11;14.53;56.81
68609;SHT31;55581;46.718;7.690;2024-02-16T13:19:37;14.69;56.20
68609;SHT31;55581;46.718;7.690;2024-02-16T13:22:03;14.58;56.86
68609;SHT31;55581;46.718;7.690;2024-02-16T13:24:29;14.51;56.21
68609;SHT31;55581;46.718;7.690;2024-02-16T13:26:57;14.49;56.60
68609;SHT31;55581;46.718;7.690;2024-02-16T13:29:22;14.42;56.99
68609;SHT31;55581;46.718;7.690;2024-02-16T13:31:48;14.32;56.29
68609;SHT31;55581;46.718;7.690;2024-02-16T13:34:13;14.32;55.28
68609;SHT31;55581;46.718;7.690;2024-02-16T13:36:42;14.38;55.56
68609;SHT31;55581;46.718;7.690;2024-02-16T13:39:07;14.21;57.23
68609;SHT31;55581;46.718;7.690;2024-02-16T13:41:33;14.18;57.27
68609;SHT31;55581;46.718;7.690;2024-02-16T13:43:59;14.11;57.56
68609;SHT31;55581;46.718;7.690;2024-02-16T13:46:24;14.15;57.65
68609;SHT31;55581;46.718;7.690;2024-02-16T13:48:50;14.18;57.36
68609;SHT31;55581;46.718;7.690;2024-02-16T13:51:15;14.26;56.68
68609;SHT31;55581;46.718;7.690;2024-02-16T13:53:41;14.48;56.73
68609;SHT31;55581;46.718;7.690;2024-02-16T13:56:07;14.68;55.60
68609;SHT31;55581;46.718;7.690;2024-02-16T13:58:33;14.80;55.56
68609;SHT31;55581;46.718;7.690;2024-02-16T14:01:00;14.80;54.74
68609;SHT31;55581;46.718;7.690;2024-02-16T14:03:28;14.83;55.89
68609;SHT31;55581;46.718;7.690;2024-02-16T14:05:54;14.79;57.11
68609;SHT31;55581;46.718;7.690;2024-02-16T14:08:21;14.76;57.92
68609;SHT31;55581;46.718;7.690;2024-02-16T14:10:50;14.66;59.49
68609;SHT31;55581;46.718;7.690;2024-02-16T14:13:15;14.56;61.04
68609;SHT31;55581;46.718;7.690;2024-02-16T14:15:41;14.80;59.53
68609;SHT31;55581;46.718;7.690;2024-02-16T14:18:07;14.79;60.08
68609;SHT31;55581;46.718;7.690;2024-02-16T14:20:35;14.93;59.14
68609;SHT31;55581;46.718;7.690;2024-02-16T14:23:01;14.97;59.65
68609;SHT31;55581;46.718;7.690;2024-02-16T14:25:28;15.06;59.30
68609;SHT31;55581;46.718;7.690;2024-02-16T14:27:53;15.10;58.47
68609;SHT31;55581;46.718;7.690;2024-02-16T14:30:20;15.20;59.35
68609;SHT31;55581;46.718;7.690;2024-02-16T14:32:45;15.30;59.59
68609;SHT31;55581;46.718;7.690;2024-02-16T14:35:13;15.39;58.69
68609;SHT31;55581;46.718;7.690;2024-02-16T14:37:39;15.41;58.31
68609;SHT31;55581;46.718;7.690;2024-02-16T14:40:07;15.48;58.62
68609;SHT31;55581;46.718;7.690;2024-02-16T14:42:35;15.54;57.62
68609;SHT31;55581;46.718;7.690;2024-02-16T14:45:01;15.39;56.40
68609;SHT31;55581;46.718;7.690;2024-02-16T14:47:28;15.32;56.81
68609;SHT31;55581;46.718;7.690;2024-02-16T14:49:53;15.39;57.51
68609;SHT31;55581;46.718;7.690;2024-02-16T14:52:19;15.32;58.06
68609;SHT31;55581;46.718;7.690;2024-02-16T14:54:44;15.30;58.71
68609;SHT31;55581;46.718;7.690;2024-02-16T14:57:09;15.38;59.48
68609;SHT31;55581;46.718;7.690;2024-02-16T14:59:35;15.39;59.84
68609;SHT31;55581;46.718;7.690;2024-02-16T15:02:01;15.41;59.49
68609;SHT31;55581;46.718;7.690;2024-02-16T15:04:28;15.34;58.79
68609;SHT31;55581;46.718;7.690;2024-02-16T15:06:56;15.16;58.33
68609;SHT31;55581;46.718;7.690;2024-02-16T15:09:21;14.94;58.22
68609;SHT31;55581;46.718;7.690;2024-02-16T15:11:46;14.80;58.43
68609;SHT31;55581;46.718;7.690;2024-02-16T15:14:12;14.73;58.67
68609;SHT31;55581;46.718;7.690;2024-02-16T15:16:38;14.63;59.43
68609;SHT31;55581;46.718;7.690;2024-02-16T15:19:03;14.55;61.48
68609;SHT31;55581;46.718;7.690;2024-02-16T15:21:31;14.56;61.21
68609;SHT31;55581;46.718;7.690;2024-02-16T15:23:56;14.66;59.71
68609;SHT31;55581;46.718;7.690;2024-02-16T15:26:22;14.72;59.72
68609;SHT31;55581;46.718;7.690;2024-02-16T15:28:47;14.89;59.52
68609;SHT31;55581;46.718;7.690;2024-02-16T15:31:15;14.75;61.19
68609;SHT31;55581;46.718;7.690;2024-02-16T15:33:40;14.62;62.41
68609;SHT31;55581;46.718;7.690;2024-02-16T15:36:07;14.48;61.71
68609;SHT31;55581;46.718;7.690;2024-02-16T15:38:36;14.41;61.56
68609;SHT31;55581;46.718;7.690;2024-02-16T15:41:06;14.31;60.75
68609;SHT31;55581;46.718;7.690;2024-02-16T15:43:32;14.35;61.08